Flight Track Log - Related Links

Times and Time Zones

All times are in EST time to prevent confusion due to time zone crossing. See the SWA4743 flight status page for this flight to view local times or setup timezone preferences in your user account.


Time Position Orientation Groundspeed Altitude Reporting Facility
EST Latitude Longitude Course Direction KTS MPH feet Rate Location/Type
Thu 11:33:26 PM 41.8167 -87.7667 89° East 207 238 2,800  Level Chicago TRACON
Thu 11:35:38 PM 41.8186 -87.5983 89° East 232 267 5,000 684 Climbing Chicago Center
Thu 11:36:39 PM 41.8100 -87.5111 98° East 236 272 5,000 1,131 Level Chicago Center
Thu 11:37:40 PM 41.8014 -87.4192 97° East 243 280 7,300 3,000 Climbing Chicago Center
Thu 11:38:41 PM 41.7856 -87.2842 99° East 296 341 11,100 3,492 Climbing Chicago Center
Thu 11:39:42 PM 41.7725 -87.1578 98° East 331 381 14,400 2,951 Climbing Chicago Center
Thu 11:40:43 PM 41.7603 -87.0172 97° East 376 433 17,100 2,656 Climbing Chicago Center
Thu 11:41:44 PM 41.7642 -86.8614 88° East 413 475 19,800 2,656 Climbing Chicago Center
Thu 11:42:45 PM 41.7661 -86.7000 89° East 430 495 22,500 2,410 Climbing Chicago Center
Thu 11:43:46 PM 41.7669 -86.5514 90° East 447 514 24,700 2,361 Climbing Chicago Center
Thu 11:44:47 PM 41.7683 -86.3414 89° East 470 541 27,300 2,164 Climbing Chicago Center
Thu 11:45:48 PM 41.7969 -86.1600 78° East 494 568 29,100 1,623 Climbing Chicago Center
Thu 11:46:49 PM 41.8281 -85.9739 77° East 508 585 30,600 1,426 Climbing Chicago Center
Thu 11:47:50 PM 41.8611 -85.7775 77° East 531 611 32,000 1,820 Climbing Chicago Center
Thu 11:48:51 PM 41.8944 -85.5792 77° East 541 623 34,300 2,066 Climbing Chicago Center
Thu 11:49:52 PM 41.9269 -85.3831 77° East 534 615 36,200 1,765 Climbing Chicago Center
Thu 11:50:16 PM 41.9419 -85.3044 76° East 547 629 36,800 571 Climbing Cleveland Center
Thu 11:51:16 PM 41.9539 -85.1125 85° East 536 617 37,000 100 Climbing Cleveland Center
Thu 11:52:16 PM 41.9531 -84.9197 90° East 518 596 37,000  Level Cleveland Center
Thu 11:53:16 PM 41.9725 -84.7339 82° East 508 585 37,000  Level Cleveland Center
Thu 11:54:16 PM 41.9958 -84.5453 80° East 513 590 37,000  Level Cleveland Center
Thu 11:55:16 PM 42.0147 -84.3536 82° East 513 590 37,000  Level Cleveland Center
Thu 11:56:16 PM 42.0347 -84.1814 81° East 518 596 37,000  Level Cleveland Center
Thu 11:57:16 PM 42.0575 -83.9869 81° East 518 596 37,000  Level Cleveland Center
Thu 11:58:16 PM 42.0778 -83.7892 82° East 518 596 37,000  Level Cleveland Center
Thu 11:59:16 PM 42.0975 -83.5972 82° East 518 596 37,000  Level Cleveland Center
Fri 12:00:16 AM 42.1214 -83.3994 81° East 523 602 37,000  Level Cleveland Center
Fri 12:01:16 AM 42.1400 -83.2239 82° East 529 609 37,000  Level Cleveland Center
Fri 12:02:16 AM 42.1617 -83.0064 82° East 529 609 37,000  Level Cleveland Center
Fri 12:03:16 AM 42.1800 -82.8108 83° East 521 600 37,000  Level Cleveland Center
Fri 12:04:16 AM 42.2025 -82.6153 81° East 521 600 37,000  Level Cleveland Center
Fri 12:05:16 AM 42.2203 -82.4197 83° East 521 600 37,000  Level Cleveland Center
Fri 12:06:16 AM 42.2400 -82.2239 82° East 521 600 37,000  Level Cleveland Center
Fri 12:07:16 AM 42.2617 -82.0028 82° East 521 600 37,000  Level Cleveland Center
Fri 12:08:16 AM 42.2808 -81.8039 83° East 526 605 37,000  Level Cleveland Center
Fri 12:09:16 AM 42.2969 -81.6275 83° East 526 605 37,000  Level Cleveland Center
Fri 12:10:16 AM 42.3153 -81.4311 83° East 526 605 37,000  Level Cleveland Center
Fri 12:11:16 AM 42.3333 -81.2319 83° East 531 611 37,000  Level Cleveland Center
Fri 12:12:16 AM 42.3531 -81.0300 82° East 539 620 37,000  Level Cleveland Center
Fri 12:13:16 AM 42.3683 -80.8306 84° East 539 620 37,000  Level Cleveland Center
Fri 12:14:16 AM 42.3872 -80.6142 83° East 539 620 37,000  Level Cleveland Center
Fri 12:15:16 AM 42.4039 -80.4144 83° East 534 615 37,000  Level Cleveland Center
Fri 12:16:16 AM 42.4200 -80.2147 84° East 543 625 37,000  Level Cleveland Center
Fri 12:17:16 AM 42.4381 -80.0119 83° East 543 625 37,000  Level Cleveland Center
Fri 12:18:16 AM 42.4514 -79.8122 85° East 543 625 37,000  Level Cleveland Center
Fri 12:19:16 AM 42.4644 -79.6150 85° East 536 617 37,000  Level Cleveland Center
Fri 12:20:16 AM 42.4794 -79.4150 84° East 536 617 37,000  Level Cleveland Center
Fri 12:21:16 AM 42.4917 -79.2175 85° East 536 617 37,000  Level Cleveland Center
Fri 12:22:16 AM 42.5058 -79.0172 84° East 541 623 37,000  Level Cleveland Center
Fri 12:23:16 AM 42.5200 -78.8367 84° East 531 611 37,000  Level Cleveland Center
Fri 12:24:16 AM 42.5336 -78.6419 85° East 531 611 37,000  Level Cleveland Center
Fri 12:25:16 AM 42.5447 -78.4442 86° East 531 611 37,000  Level Cleveland Center
Fri 12:26:16 AM 42.5575 -78.2464 85° East 531 611 37,000  Level Cleveland Center
Fri 12:27:16 AM 42.5700 -78.0514 85° East 525 604 37,000  Level Cleveland Center
Fri 12:28:16 AM 42.5822 -77.8564 85° East 520 598 37,000  Level Cleveland Center
Fri 12:29:16 AM 42.5961 -77.6611 84° East 515 593 37,000  Level Cleveland Center
Fri 12:30:16 AM 42.6078 -77.4658 85° East 520 598 37,000  Level Cleveland Center
Fri 12:32:40 AM 42.6300 -76.9956 86° East 518 596 37,000  Level Boston Center
Fri 12:33:40 AM 42.6397 -76.8042 86° East 512 589 37,000  Level Boston Center
Fri 12:34:40 AM 42.6489 -76.6128 86° East 512 589 37,000  Level Boston Center
Fri 12:35:40 AM 42.6558 -76.4211 87° East 512 589 37,000  Level Boston Center
Fri 12:36:40 AM 42.6667 -76.2269 86° East 512 589 37,000  Level Boston Center
Fri 12:37:40 AM 42.6747 -76.0383 87° East 512 589 37,000  Level Boston Center
Fri 12:38:40 AM 42.6836 -75.8239 87° East 512 589 37,000  Level Boston Center
Fri 12:39:40 AM 42.6911 -75.6350 87° East 512 589 37,000  Level Boston Center
Fri 12:40:40 AM 42.7047 -75.4408 84° East 512 589 37,000  Level Boston Center
Fri 12:41:40 AM 42.7158 -75.2464 85° East 512 589 37,000 -250 Level Boston Center
Fri 12:42:40 AM 42.7247 -75.0572 86° East 512 589 36,500 -750 Descending Boston Center
Fri 12:43:40 AM 42.7350 -74.8656 86° East 507 583 35,500 -1,050 Descending Boston Center
Fri 12:44:40 AM 42.7431 -74.6764 87° East 507 583 34,400 -1,750 Descending Boston Center
Fri 12:45:40 AM 42.7528 -74.4900 86° East 502 578 32,000 -1,250 Descending Boston Center
Fri 12:46:40 AM 42.7625 -74.3039 86° East 497 572 31,900 -400 Descending Boston Center
Fri 12:47:40 AM 42.7736 -74.1175 85° East 497 572 31,200 -900 Descending Boston Center
Fri 12:48:40 AM 42.7781 -73.9450 88° East 478 550 30,100 -1,050 Descending Boston Center
Fri 12:49:40 AM 42.7886 -73.7756 85° East 458 527 29,100 -1,450 Descending Boston Center
Fri 12:50:40 AM 42.7964 -73.6228 86° East 433 498 27,200 -1,950 Descending Boston Center
Fri 12:51:40 AM 42.8022 -73.4700 87° East 413 475 25,200 -1,600 Descending Boston Center
Fri 12:52:40 AM 42.8075 -73.3175 87° East 407 468 24,000 -600 Descending Boston Center
Fri 12:53:40 AM 42.8150 -73.1703 86° East 395 455 24,000 -250 Level Boston Center
Fri 12:54:40 AM 42.8200 -73.0231 87° East 390 449 23,500 -1,400 Descending Boston Center
Fri 12:55:40 AM 42.8247 -72.8675 88° East 396 456 21,200 -2,350 Descending Boston Center
Fri 12:56:40 AM 42.8314 -72.7344 86° East 391 450 18,800 -2,450 Descending Boston Center
Fri 12:57:40 AM 42.8358 -72.5903 88° East 372 428 16,300 -2,300 Descending Boston Center
Fri 12:58:40 AM 42.8403 -72.4486 88° East 372 428 14,200 -2,000 Descending Boston Center
Fri 12:59:40 AM 42.8358 -72.3156 93° East 359 413 12,300 -1,700 Descending Boston Center
Fri 01:00:40 AM 42.8128 -72.2081 106° East 337 388 10,800 -1,700 Descending Boston Center
Fri 01:01:40 AM 42.7875 -72.0836 105° East 313 360 8,900 -1,500 Descending Boston Center
Fri 01:02:40 AM 42.7683 -71.9847 105° East 302 348 7,800 -1,450 Descending Boston Center
Fri 01:03:40 AM 42.7533 -71.8717 100° East 285 328 6,000 -1,400 Descending Boston Center
Fri 01:04:40 AM 42.7425 -71.7814 99° East 273 314 5,000 -1,100 Descending Boston Center
Fri 01:05:40 AM 42.7292 -71.6825 100° East 249 287 3,800 -950 Descending Boston Center
Fri 01:06:40 AM 42.7161 -71.6036 103° East 234 269 3,100 -350 Descending Boston Center
Fri 01:07:40 AM 42.7239 -71.5158 83° East 220 253 3,100  Level Boston Center
Fri 01:08:40 AM 42.7419 -71.4364 73° East 214 246 3,100  Level Boston Center
Fri 01:09:40 AM 42.7600 -71.3683 70° East 206 237 3,100 -50 Level Boston Center
Fri 01:10:40 AM 42.8058 -71.3619 North 148 170 3,000 -450 Descending Boston Center
Fri 01:11:40 AM 42.8394 -71.3811 337° Northwest 127 146 2,200 -700 Descending Boston Center
Fri 01:12:40 AM 42.8667 -71.3947 340° North 127 146 1,600 -600 Descending Boston Center
Fri 01:15:00 AM 42.9167 -71.4333 332° Northwest  Level FlightAware Approximate
Fri 01:22:00 AM 42.9328 -71.4358 332° Northwest  Level Estimated

Login

Don't have an account? Register now (free) for customized features, flight alerts, and more!